Time;durP1;ratioP1;P1;durP2;ratioP2;P2;SDS_P1;SDS_P2;PMS_P1;PMS_P2;Temp;Humidity;BMP_temperature;BMP_pressure;BME280_temperature;BME280_humidity;BME280_pressure;Samples;Min_cycle;Max_cycle;Signal;HPM_P1;HPM_P2
2023/03/26 00:00:16;;;;;;;0.10;0.10;;;6.00;99.90;;;;;;5076345;28;20318;-77
2023/03/26 00:02:46;;;;;;;0.10;0.10;;;6.00;99.90;;;;;;5078766;28;20052;-77
2023/03/26 00:05:13;;;;;;;0.10;0.10;;;6.00;99.90;;;;;;5072751;28;20254;-77
2023/03/26 00:07:43;;;;;;;0.10;0.10;;;5.90;99.90;;;;;;5067471;28;20017;-76
2023/03/26 00:10:09;;;;;;;0.10;0.10;;;5.90;99.90;;;;;;5064333;28;20033;-77
2023/03/26 00:12:35;;;;;;;2.25;2.15;;;5.80;99.90;;;;;;5065159;28;20107;-76
2023/03/26 00:15:09;;;;;;;0.10;0.10;;;5.80;99.90;;;;;;5065973;28;20163;-76
2023/03/26 00:17:36;;;;;;;0.10;0.10;;;;;;;;;;5065366;28;20046;-76
2023/03/26 00:20:04;;;;;;;0.10;0.10;;;5.80;99.90;;;;;;5065842;28;20028;-77
2023/03/26 00:22:29;;;;;;;0.10;0.10;;;5.80;99.90;;;;;;5063807;28;20098;-76
2023/03/26 00:24:55;;;;;;;0.17;0.17;;;5.80;99.90;;;;;;5066070;28;20087;-77
2023/03/26 00:27:22;;;;;;;0.10;0.10;;;5.70;99.90;;;;;;5066201;28;20020;-78
2023/03/26 00:29:48;;;;;;;3.72;2.38;;;5.70;99.90;;;;;;5060791;28;20037;-76
2023/03/26 00:32:14;;;;;;;0.10;0.10;;;6.10;99.90;;;;;;5062254;28;20023;-76
2023/03/26 00:34:41;;;;;;;0.03;0.03;;;5.60;99.90;;;;;;5060850;28;20055;-76
2023/03/26 00:37:07;;;;;;;0.10;0.10;;;;;;;;;;5061542;28;20021;-77
2023/03/26 00:39:36;;;;;;;0.10;0.10;;;5.60;99.90;;;;;;5061978;28;20038;-76
2023/03/26 00:42:05;;;;;;;0.10;0.10;;;5.60;99.90;;;;;;5060410;28;20120;-77
2023/03/26 00:44:33;;;;;;;0.10;0.10;;;5.60;99.90;;;;;;5061926;28;20022;-76
2023/03/26 00:46:59;;;;;;;0.10;0.10;;;5.50;99.90;;;;;;5062798;28;20354;-76
2023/03/26 00:49:29;;;;;;;0.20;0.20;;;5.50;99.90;;;;;;5063521;28;20034;-77
2023/03/26 00:51:55;;;;;;;0.10;0.10;;;5.60;99.90;;;;;;5062014;28;20032;-76
2023/03/26 00:54:21;;;;;;;0.10;0.10;;;;;;;;;;5063872;28;20020;-76
2023/03/26 00:56:47;;;;;;;0.10;0.10;;;5.50;99.90;;;;;;5060824;28;20086;-76
2023/03/26 00:59:13;;;;;;;0.10;0.10;;;6.10;99.90;;;;;;5061756;28;20036;-77
2023/03/26 01:01:40;;;;;;;0.40;0.40;;;5.40;99.90;;;;;;5063559;28;20025;-77
2023/03/26 01:04:30;;;;;;;0.20;0.20;;;5.40;99.90;;;;;;5066086;28;20059;-76
2023/03/26 01:07:12;;;;;;;0.10;0.10;;;5.30;99.90;;;;;;5064872;28;20279;-77
2023/03/26 01:09:41;;;;;;;0.10;0.10;;;5.30;99.90;;;;;;5062943;28;20246;-77
2023/03/26 01:12:10;;;;;;;0.10;0.10;;;5.20;99.90;;;;;;5061293;28;20434;-77
2023/03/26 01:14:38;;;;;;;0.10;0.10;;;5.20;99.90;;;;;;5068612;28;20085;-76
2023/03/26 01:17:06;;;;;;;0.10;0.10;;;5.10;99.90;;;;;;5063133;28;20112;-76
2023/03/26 01:19:53;;;;;;;0.10;0.10;;;5.00;99.90;;;;;;5061894;28;20043;-77
2023/03/26 01:22:22;;;;;;;0.10;0.10;;;4.90;99.90;;;;;;5061407;28;20520;-76
2023/03/26 01:24:52;;;;;;;0.10;0.10;;;4.90;99.90;;;;;;5063571;28;20299;-76
2023/03/26 01:27:37;;;;;;;14.23;13.38;;;4.90;99.90;;;;;;5064648;28;20431;-76
2023/03/26 01:30:10;;;;;;;0.13;0.13;;;4.90;99.90;;;;;;5067356;28;20197;-77
2023/03/26 01:32:54;;;;;;;0.10;0.10;;;4.90;99.90;;;;;;5069253;28;20032;-76
2023/03/26 01:35:20;;;;;;;;;;;4.80;99.90;;;;;;5065870;28;20509;-76
2023/03/26 01:37:45;;;;;;;0.10;0.10;;;4.80;99.90;;;;;;5065649;28;19912;-77
2023/03/26 01:40:27;;;;;;;0.20;0.20;;;4.80;99.90;;;;;;5065843;28;20020;-76
2023/03/26 01:43:05;;;;;;;0.10;0.10;;;4.70;99.90;;;;;;5066375;28;20220;-77
2023/03/26 01:45:35;;;;;;;0.10;0.10;;;4.70;99.90;;;;;;5063897;28;20221;-77
2023/03/26 01:48:01;;;;;;;7.20;6.93;;;4.70;99.90;;;;;;5064128;28;20375;-76
2023/03/26 01:50:28;;;;;;;0.10;0.10;;;4.40;99.90;;;;;;5064005;28;20538;-76
2023/03/26 01:52:58;;;;;;;0.20;0.20;;;4.70;99.90;;;;;;5062044;28;20090;-76
2023/03/26 01:55:33;;;;;;;0.10;0.10;;;4.70;99.90;;;;;;5066713;28;20020;-76
2023/03/26 01:58:01;;;;;;;;;;;4.70;99.90;;;;;;5066349;28;20056;-76
2023/03/26 02:00:39;;;;;;;0.10;0.10;;;4.70;99.90;;;;;;5070360;28;19968;-76
2023/03/26 02:03:26;;;;;;;0.20;0.20;;;4.60;99.90;;;;;;5065045;28;20017;-77
2023/03/26 02:06:14;;;;;;;0.15;0.15;;;4.60;99.90;;;;;;5069469;28;20051;-76
2023/03/26 02:08:47;;;;;;;0.20;0.20;;;4.60;99.90;;;;;;5072392;28;20594;-76
2023/03/26 02:11:14;;;;;;;0.20;0.20;;;6.80;99.90;;;;;;5067444;28;20375;-77
2023/03/26 02:13:43;;;;;;;0.15;0.15;;;4.60;99.90;;;;;;5073879;28;20024;-76
2023/03/26 02:16:17;;;;;;;0.10;0.10;;;4.60;99.90;;;;;;5087030;28;20104;-75
2023/03/26 02:18:46;;;;;;;0.20;0.20;;;4.60;99.90;;;;;;5065836;28;20094;-76
2023/03/26 02:21:22;;;;;;;0.17;0.17;;;4.60;99.90;;;;;;5065075;28;20013;-77
2023/03/26 02:23:56;;;;;;;0.10;0.10;;;4.50;99.90;;;;;;5066102;28;20040;-76
2023/03/26 02:26:23;;;;;;;0.10;0.10;;;4.60;99.90;;;;;;5068059;28;20025;-76
2023/03/26 02:28:49;;;;;;;0.20;0.20;;;5.20;99.90;;;;;;5064393;28;20252;-77
2023/03/26 02:31:18;;;;;;;0.20;0.20;;;4.50;99.90;;;;;;5071613;28;20032;-77
2023/03/26 02:33:46;;;;;;;0.13;0.13;;;4.50;99.90;;;;;;5071536;28;20255;-76
2023/03/26 02:36:13;;;;;;;0.10;0.10;;;4.40;99.90;;;;;;5075075;28;20076;-76
2023/03/26 02:38:40;;;;;;;0.13;0.13;;;4.40;99.90;;;;;;5064200;28;20024;-76
2023/03/26 02:41:07;;;;;;;0.20;0.20;;;4.40;99.90;;;;;;5071568;28;20029;-75
2023/03/26 02:43:34;;;;;;;0.10;0.10;;;4.40;99.90;;;;;;5064355;28;20037;-77
2023/03/26 02:46:00;;;;;;;0.20;0.20;;;4.40;99.90;;;;;;5063278;28;20048;-76
2023/03/26 02:48:25;;;;;;;0.10;0.10;;;4.40;99.90;;;;;;5064393;28;20439;-76
2023/03/26 02:50:53;;;;;;;0.10;0.10;;;4.40;99.90;;;;;;5064940;28;20312;-76
2023/03/26 02:53:22;;;;;;;0.10;0.10;;;4.30;99.90;;;;;;5064359;28;20012;-76
2023/03/26 02:55:49;;;;;;;0.10;0.10;;;4.40;99.90;;;;;;5064424;28;20616;-76
2023/03/26 02:58:16;;;;;;;0.15;0.15;;;4.30;99.90;;;;;;5064368;28;20530;-76
2023/03/26 03:00:43;;;;;;;0.20;0.20;;;4.30;99.90;;;;;;5063152;28;20393;-76
2023/03/26 03:03:09;;;;;;;0.10;0.10;;;4.30;99.90;;;;;;5063539;28;20028;-76
2023/03/26 03:05:36;;;;;;;0.20;0.20;;;4.40;99.90;;;;;;5064634;28;20028;-77
2023/03/26 03:08:04;;;;;;;1.95;1.95;;;4.40;99.90;;;;;;5062937;28;20480;-76
2023/03/26 03:10:31;;;;;;;0.20;0.20;;;4.30;99.90;;;;;;5077931;28;20594;-76
2023/03/26 03:12:58;;;;;;;0.20;0.20;;;4.30;99.90;;;;;;5062764;28;20048;-76
2023/03/26 03:15:24;;;;;;;0.10;0.10;;;4.30;99.90;;;;;;5064719;28;20036;-76
2023/03/26 03:17:50;;;;;;;0.10;0.10;;;4.30;99.90;;;;;;5066145;28;20025;-77
2023/03/26 03:20:16;;;;;;;0.10;0.10;;;4.30;99.90;;;;;;5067888;28;20549;-77
2023/03/26 03:22:42;;;;;;;0.10;0.10;;;4.30;99.90;;;;;;5067701;28;20025;-77
2023/03/26 03:25:13;;;;;;;0.10;0.10;;;4.30;99.90;;;;;;5067116;28;20082;-77
2023/03/26 03:27:40;;;;;;;0.10;0.10;;;4.30;99.90;;;;;;5065129;28;20044;-76
2023/03/26 03:30:09;;;;;;;0.20;0.20;;;4.40;99.90;;;;;;5066035;28;20037;-78
2023/03/26 03:32:36;;;;;;;0.20;0.20;;;4.40;99.90;;;;;;5066562;28;20697;-77
2023/03/26 03:35:02;;;;;;;0.10;0.10;;;4.30;99.90;;;;;;5066502;28;20059;-77
2023/03/26 03:37:27;;;;;;;0.13;0.13;;;4.60;99.90;;;;;;5081342;28;20137;-77
2023/03/26 03:39:54;;;;;;;0.25;0.25;;;4.20;99.90;;;;;;5066233;28;20135;-77
2023/03/26 03:42:20;;;;;;;0.17;0.17;;;4.10;99.90;;;;;;5064661;28;20016;-77
2023/03/26 03:44:46;;;;;;;0.10;0.10;;;4.00;99.90;;;;;;5067204;28;20043;-77
2023/03/26 03:47:12;;;;;;;0.20;0.20;;;3.90;99.90;;;;;;5063795;28;20033;-76
2023/03/26 03:49:39;;;;;;;0.20;0.20;;;3.90;99.90;;;;;;5065143;28;20119;-77
2023/03/26 03:52:06;;;;;;;0.13;0.13;;;3.90;99.90;;;;;;5066900;28;20493;-76
2023/03/26 03:54:32;;;;;;;0.20;0.20;;;;;;;;;;5068769;28;20121;-76
2023/03/26 03:57:00;;;;;;;0.28;0.28;;;;;;;;;;5068709;28;20029;-76
2023/03/26 03:59:26;;;;;;;0.17;0.17;;;;;;;;;;5071184;28;20499;-76
2023/03/26 04:01:52;;;;;;;0.10;0.10;;;;;;;;;;5070339;28;20089;-77
2023/03/26 04:04:20;;;;;;;0.10;0.10;;;3.70;99.90;;;;;;5072178;28;20092;-77
2023/03/26 04:06:45;;;;;;;1.10;1.10;;;3.70;99.90;;;;;;5069275;28;20059;-75
2023/03/26 04:09:11;;;;;;;0.25;0.25;;;3.70;99.90;;;;;;5065618;28;20048;-76
2023/03/26 04:11:37;;;;;;;0.10;0.10;;;3.90;99.90;;;;;;5066488;28;20040;-76
2023/03/26 04:14:03;;;;;;;0.25;0.25;;;2.40;99.90;;;;;;5066559;28;20055;-76
2023/03/26 04:16:29;;;;;;;0.82;0.82;;;3.50;99.90;;;;;;5071391;28;20059;-77
2023/03/26 04:18:57;;;;;;;0.10;0.10;;;3.40;99.90;;;;;;5066323;28;20033;-76
2023/03/26 04:21:25;;;;;;;0.20;0.20;;;3.40;99.90;;;;;;5069580;28;20055;-77
2023/03/26 04:23:50;;;;;;;6.30;6.03;;;5.40;99.90;;;;;;5068325;28;20361;-75
2023/03/26 04:26:20;;;;;;;0.20;0.20;;;3.40;99.90;;;;;;5068592;28;20051;-77
2023/03/26 04:28:57;;;;;;;0.20;0.20;;;3.40;99.90;;;;;;5069169;28;20017;-76
2023/03/26 04:31:29;;;;;;;0.20;0.20;;;3.40;99.90;;;;;;5069332;28;20032;-77
2023/03/26 04:34:05;;;;;;;0.20;0.20;;;3.40;99.90;;;;;;5067978;28;20090;-77
2023/03/26 04:36:33;;;;;;;0.10;0.10;;;;;;;;;;5067760;28;20021;-77
2023/03/26 04:39:03;;;;;;;0.20;0.20;;;3.40;99.90;;;;;;5069267;28;20024;-77
2023/03/26 04:41:31;;;;;;;0.20;0.20;;;;;;;;;;5068161;28;20020;-77
2023/03/26 04:44:00;;;;;;;0.20;0.20;;;3.40;99.90;;;;;;5067387;28;20740;-77
2023/03/26 04:46:26;;;;;;;0.10;0.10;;;3.90;99.90;;;;;;5063089;28;20049;-76
2023/03/26 04:48:53;;;;;;;0.20;0.20;;;3.40;99.90;;;;;;5061463;28;20020;-76
2023/03/26 04:51:23;;;;;;;0.10;0.10;;;3.50;99.90;;;;;;5064841;28;20035;-77
2023/03/26 04:54:01;;;;;;;0.20;0.20;;;3.40;99.90;;;;;;5062664;28;20095;-76
2023/03/26 04:56:54;;;;;;;0.13;0.13;;;3.50;99.90;;;;;;5062338;28;20028;-77
2023/03/26 04:59:33;;;;;;;0.20;0.20;;;3.50;99.90;;;;;;5061665;28;20232;-76
2023/03/26 05:02:10;;;;;;;0.20;0.20;;;3.50;99.90;;;;;;5062752;28;20035;-75
2023/03/26 05:04:39;;;;;;;0.20;0.20;;;;;;;;;;5064751;28;20024;-76
2023/03/26 05:07:06;;;;;;;0.20;0.20;;;3.50;99.90;;;;;;5062537;28;20424;-77
2023/03/26 05:09:32;;;;;;;0.17;0.17;;;3.60;99.90;;;;;;5063215;28;20040;-77
2023/03/26 05:11:58;;;;;;;0.10;0.10;;;3.80;99.90;;;;;;5064610;28;20104;-77
2023/03/26 05:14:24;;;;;;;0.20;0.20;;;;;;;;;;5067941;28;20491;-76
2023/03/26 05:16:52;;;;;;;0.20;0.20;;;3.70;99.90;;;;;;5071958;28;20543;-77
2023/03/26 05:19:18;;;;;;;0.20;0.20;;;3.60;99.90;;;;;;5070006;28;20020;-76
2023/03/26 05:21:44;;;;;;;0.20;0.20;;;3.80;99.90;;;;;;5066184;28;20194;-77
2023/03/26 05:24:18;;;;;;;0.20;0.20;;;1.10;99.90;;;;;;5084217;28;20028;-77
2023/03/26 05:26:44;;;;;;;12.82;5.75;;;3.90;99.90;;;;;;5067732;28;20480;-76
2023/03/26 05:29:17;;;;;;;0.93;0.90;;;4.10;99.90;;;;;;5064811;28;20108;-77
2023/03/26 05:31:47;;;;;;;0.10;0.10;;;4.00;99.90;;;;;;5062024;28;20602;-77
2023/03/26 05:34:23;;;;;;;0.10;0.10;;;4.20;99.90;;;;;;5067666;28;20287;-76
2023/03/26 05:36:49;;;;;;;0.55;0.55;;;4.30;99.90;;;;;;5068066;28;20082;-76
2023/03/26 05:39:15;;;;;;;0.10;0.10;;;4.30;99.90;;;;;;5067505;28;20300;-77
2023/03/26 05:41:44;;;;;;;0.20;0.20;;;4.40;99.90;;;;;;5066068;28;20643;-76
2023/03/26 05:44:10;;;;;;;0.15;0.15;;;4.40;99.90;;;;;;5067839;28;20024;-77
2023/03/26 05:46:35;;;;;;;0.10;0.10;;;4.60;99.90;;;;;;5063043;28;20060;-76
2023/03/26 05:49:02;;;;;;;0.75;0.75;;;4.70;99.90;;;;;;5063819;28;20062;-76
2023/03/26 05:51:27;;;;;;;0.10;0.10;;;4.80;99.90;;;;;;5060248;28;20032;-77
2023/03/26 05:53:54;;;;;;;0.20;0.20;;;4.80;99.90;;;;;;5061375;28;20403;-77
2023/03/26 05:56:20;;;;;;;0.10;0.10;;;4.90;99.90;;;;;;5062165;28;20029;-76
2023/03/26 05:58:46;;;;;;;0.10;0.10;;;2.10;99.90;;;;;;5061287;28;20027;-76
2023/03/26 06:01:17;;;;;;;0.10;0.10;;;5.10;99.90;;;;;;5062155;28;20087;-76
2023/03/26 06:03:44;;;;;;;0.10;0.10;;;5.30;99.90;;;;;;5060680;28;20230;-76
2023/03/26 06:06:14;;;;;;;0.10;0.10;;;5.30;99.90;;;;;;5061075;28;20063;-77
2023/03/26 06:08:47;;;;;;;10.48;9.63;;;5.40;99.90;;;;;;5061450;28;20522;-77
2023/03/26 06:11:14;;;;;;;0.10;0.10;;;5.50;99.90;;;;;;5046006;28;20588;-77
2023/03/26 06:13:42;;;;;;;0.10;0.10;;;5.60;99.90;;;;;;5061360;28;20197;-77
2023/03/26 06:16:09;;;;;;;0.10;0.10;;;5.70;99.90;;;;;;5066125;28;20454;-77
2023/03/26 06:18:35;;;;;;;0.10;0.10;;;5.80;99.90;;;;;;5071481;28;20024;-77
2023/03/26 06:21:02;;;;;;;1.85;1.75;;;5.60;99.90;;;;;;5071068;28;20095;-77
2023/03/26 06:23:28;;;;;;;0.00;0.00;;;6.00;99.90;;;;;;5067798;28;20071;-77
2023/03/26 06:25:55;;;;;;;0.13;0.13;;;3.80;99.90;;;;;;5064444;28;20024;-77
2023/03/26 06:28:22;;;;;;;0.10;0.10;;;6.10;99.90;;;;;;5075992;28;20031;-76
2023/03/26 06:30:50;;;;;;;0.10;0.10;;;7.50;99.90;;;;;;5076135;28;20597;-76
2023/03/26 06:33:16;;;;;;;0.10;0.10;;;6.40;99.90;;;;;;5070900;28;20098;-77
2023/03/26 06:35:44;;;;;;;0.10;0.10;;;6.50;99.90;;;;;;5077011;28;20424;-76
2023/03/26 06:38:12;;;;;;;0.10;0.10;;;6.60;99.90;;;;;;5077125;28;20020;-77
2023/03/26 06:40:39;;;;;;;0.13;0.13;;;6.60;99.90;;;;;;5071517;28;20039;-77
2023/03/26 06:43:07;;;;;;;0.05;0.05;;;6.60;99.90;;;;;;5073880;28;20048;-77
2023/03/26 06:45:33;;;;;;;0.10;0.10;;;6.80;99.90;;;;;;5068129;28;20394;-77
2023/03/26 06:47:59;;;;;;;0.05;0.05;;;7.00;99.90;;;;;;5064954;28;20029;-76
2023/03/26 06:50:25;;;;;;;0.75;0.75;;;7.00;99.90;;;;;;5064403;28;20131;-77
2023/03/26 06:52:55;;;;;;;0.10;0.10;;;7.10;99.90;;;;;;5063821;28;20029;-78
2023/03/26 06:55:21;;;;;;;0.00;0.00;;;7.20;99.90;;;;;;5046151;28;20032;-77
2023/03/26 06:57:51;;;;;;;0.10;0.10;;;7.30;99.90;;;;;;5065090;28;20045;-76
2023/03/26 07:00:19;;;;;;;11.20;10.77;;;7.40;99.90;;;;;;5063504;28;20021;-76
2023/03/26 07:02:45;;;;;;;0.03;0.03;;;7.40;99.90;;;;;;5063524;28;20058;-76
2023/03/26 07:05:12;;;;;;;0.10;0.10;;;7.40;99.90;;;;;;5062930;28;20025;-77
2023/03/26 07:07:38;;;;;;;0.00;0.00;;;7.40;99.90;;;;;;5064828;28;20025;-77
2023/03/26 07:10:06;;;;;;;0.10;0.10;;;7.50;99.90;;;;;;5063992;28;20043;-77
2023/03/26 07:12:32;;;;;;;1.98;1.88;;;7.60;99.90;;;;;;5062443;28;20035;-77
2023/03/26 07:15:00;;;;;;;0.03;0.03;;;7.60;99.90;;;;;;5061742;28;20025;-77
2023/03/26 07:17:26;;;;;;;0.00;0.00;;;7.60;99.90;;;;;;5060408;28;20219;-76
2023/03/26 07:19:53;;;;;;;0.10;0.10;;;7.70;99.90;;;;;;5062394;28;20024;-76
2023/03/26 07:22:21;;;;;;;0.10;0.10;;;7.70;99.90;;;;;;5061581;28;20024;-77
2023/03/26 07:24:47;;;;;;;0.00;0.00;;;7.90;99.90;;;;;;5062551;28;20036;-77
2023/03/26 07:27:51;;;;;;;0.10;0.10;;;8.00;99.90;;;;;;5061049;28;20405;-77
2023/03/26 07:30:27;;;;;;;0.00;0.00;;;8.00;99.90;;;;;;5064145;28;20046;-76
2023/03/26 07:33:04;;;;;;;0.00;0.00;;;8.10;99.90;;;;;;5079807;28;20028;-79
2023/03/26 07:36:03;;;;;;;0.00;0.00;;;11.60;99.90;;;;;;5077275;28;20031;-76
2023/03/26 07:38:50;;;;;;;0.03;0.03;;;8.30;99.90;;;;;;5081598;28;20029;-78
2023/03/26 07:42:07;;;;;;;0.05;0.05;;;8.50;99.90;;;;;;5082150;28;20257;-77
2023/03/26 07:44:42;;;;;;;0.00;0.00;;;9.10;99.90;;;;;;5018827;28;20057;-78
2023/03/26 07:47:32;;;;;;;0.32;0.32;;;9.10;99.90;;;;;;4990472;28;20060;-77
2023/03/26 07:49:59;;;;;;;0.00;0.00;;;9.10;99.90;;;;;;4944489;29;20053;-76
2023/03/26 07:52:27;;;;;;;0.00;0.00;;;9.30;99.90;;;;;;4945067;29;20098;-77
2023/03/26 07:54:53;;;;;;;0.00;0.00;;;9.50;99.90;;;;;;4944274;29;20246;-77
2023/03/26 07:57:56;;;;;;;1.20;1.20;;;9.60;99.90;;;;;;4943278;29;20408;-77
2023/03/26 08:00:33;;;;;;;0.32;0.32;;;9.80;99.90;;;;;;4946554;29;20091;-76
2023/03/26 08:03:14;;;;;;;0.03;0.03;;;9.90;99.90;;;;;;4944848;29;20047;-77
2023/03/26 08:06:32;;;;;;;0.10;0.10;;;10.10;99.90;;;;;;4944249;29;20066;-77
2023/03/26 08:09:25;;;;;;;0.10;0.10;;;10.20;99.90;;;;;;4869860;29;20411;-77
2023/03/26 08:12:24;;;;;;;0.00;0.00;;;10.50;99.90;;;;;;4870623;29;20073;-77
2023/03/26 08:15:40;;;;;;;0.10;0.10;;;10.50;99.90;;;;;;4814970;29;20494;-77
2023/03/26 08:18:34;;;;;;;0.10;0.10;;;10.60;99.90;;;;;;4744131;30;20090;-77
2023/03/26 08:21:05;;;;;;;;;;;10.90;99.90;;;;;;4766531;29;20073;-78
2023/03/26 08:23:57;;;;;;;0.13;0.13;;;11.00;99.90;;;;;;4819368;29;20003;-77
2023/03/26 08:27:05;;;;;;;0.00;0.00;;;10.80;99.90;;;;;;4825484;29;20038;-78
2023/03/26 08:29:40;;;;;;;0.00;0.00;;;10.80;99.90;;;;;;4837317;29;20329;-78
2023/03/26 08:32:22;;;;;;;0.00;0.00;;;11.20;99.90;;;;;;4823227;29;20026;-78
2023/03/26 08:34:48;;;;;;;16.65;12.60;;;11.40;99.90;;;;;;4836612;29;20087;-77
2023/03/26 08:37:15;;;;;;;0.88;0.88;;;11.50;99.90;;;;;;4837696;29;20046;-77
2023/03/26 08:39:41;;;;;;;4.57;4.38;;;11.70;99.90;;;;;;4835793;29;20048;-76
2023/03/26 08:42:15;;;;;;;0.10;0.10;;;12.00;99.90;;;;;;4830506;29;20039;-77
2023/03/26 08:45:02;;;;;;;0.20;0.20;;;12.10;98.40;;;;;;4838976;29;20032;-78
2023/03/26 08:47:39;;;;;;;0.00;0.00;;;12.20;98.20;;;;;;4883293;29;20041;-78
2023/03/26 08:50:20;;;;;;;0.10;0.10;;;12.40;97.00;;;;;;4919364;29;20106;-77
2023/03/26 08:53:06;;;;;;;0.10;0.10;;;14.60;96.10;;;;;;4977888;28;20022;-77
2023/03/26 08:55:39;;;;;;;0.15;0.15;;;10.10;93.90;;;;;;4961152;28;20034;-77
2023/03/26 08:58:07;;;;;;;2.43;2.33;;;12.50;93.20;;;;;;4961786;28;20280;-77
2023/03/26 09:01:12;;;;;;;0.00;0.00;;;13.40;92.40;;;;;;4977192;28;20031;-78
2023/03/26 09:03:58;;;;;;;0.13;0.13;;;13.30;92.10;;;;;;4980079;28;20030;-76
2023/03/26 09:06:48;;;;;;;0.10;0.10;;;13.50;91.60;;;;;;4996452;28;20041;-79
2023/03/26 09:09:51;;;;;;;0.10;0.10;;;13.70;90.50;;;;;;4996680;28;20242;-76
2023/03/26 09:12:38;;;;;;;0.10;0.10;;;13.80;90.00;;;;;;4996403;28;20544;-77
2023/03/26 09:15:27;;;;;;;0.10;0.10;;;13.80;89.50;;;;;;4995789;28;20065;-77
2023/03/26 09:18:14;;;;;;;0.10;0.10;;;14.00;89.00;;;;;;4995809;28;20022;-76
2023/03/26 09:20:51;;;;;;;0.20;0.20;;;14.20;85.70;;;;;;4979427;28;20125;-76
2023/03/26 09:23:32;;;;;;;1.38;1.38;;;14.20;85.30;;;;;;4996165;28;20022;-75
2023/03/26 09:26:19;;;;;;;0.10;0.10;;;14.60;85.50;;;;;;4995734;28;20351;-76
2023/03/26 09:29:13;;;;;;;0.10;0.10;;;14.80;84.00;;;;;;4995568;28;20069;-76
2023/03/26 09:31:44;;;;;;;;;;;15.10;82.30;;;;;;4993779;28;20046;-75
2023/03/26 09:34:33;;;;;;;0.20;0.20;;;15.30;80.10;;;;;;5012067;28;20015;-77
2023/03/26 09:37:32;;;;;;;0.20;0.20;;;15.50;78.00;;;;;;4996556;28;20022;-76
2023/03/26 09:39:58;;;;;;;0.20;0.20;;;15.70;78.00;;;;;;5004891;28;20040;-75
2023/03/26 09:42:42;;;;;;;0.10;0.10;;;15.70;76.60;;;;;;5058128;28;20418;-78
2023/03/26 09:45:28;;;;;;;0.40;0.40;;;15.60;75.30;;;;;;5058418;28;20283;-78
2023/03/26 09:48:12;;;;;;;0.20;0.20;;;15.50;74.80;;;;;;5058152;28;20024;-76
2023/03/26 09:50:43;;;;;;;;;;;14.00;74.10;;;;;;5058092;28;20032;-78
2023/03/26 09:53:36;;;;;;;2.05;1.95;;;16.00;75.50;;;;;;5056551;28;20391;-77
2023/03/26 09:56:19;;;;;;;0.10;0.10;;;16.20;73.80;;;;;;5057998;28;20017;-76
2023/03/26 09:59:07;;;;;;;0.15;0.15;;;16.50;74.10;;;;;;5057928;28;20312;-76
2023/03/26 10:01:41;;;;;;;0.45;0.45;;;16.70;71.70;;;;;;5056424;28;20126;-76
2023/03/26 10:04:37;;;;;;;0.10;0.10;;;17.00;69.70;;;;;;5060104;28;20044;-83
2023/03/26 10:07:15;;;;;;;0.90;0.90;;;17.00;70.10;;;;;;5059507;28;20023;-78
2023/03/26 10:10:07;;;;;;;0.10;0.10;;;17.30;68.80;;;;;;5059199;28;20228;-81
2023/03/26 10:12:38;;;;;;;0.10;0.10;;;17.50;66.70;;;;;;5052269;28;20495;-85
2023/03/26 10:15:30;;;;;;;0.10;0.10;;;17.60;67.30;;;;;;5061162;28;20484;-86
2023/03/26 10:18:14;;;;;;;0.93;0.93;;;17.60;64.20;;;;;;5056427;28;20033;-79
2023/03/26 10:20:58;;;;;;;0.10;0.10;;;17.30;64.70;;;;;;5059012;28;20020;-77
2023/03/26 10:24:03;;;;;;;0.52;0.52;;;17.60;64.20;;;;;;5059223;28;20039;-77
2023/03/26 10:26:52;;;;;;;0.10;0.10;;;17.70;65.00;;;;;;5057479;28;20371;-76
2023/03/26 10:29:52;;;;;;;0.10;0.10;;;17.60;61.60;;;;;;5073121;28;20353;-77
2023/03/26 10:32:30;;;;;;;0.10;0.10;;;18.20;61.50;;;;;;5059743;28;20086;-77
2023/03/26 10:35:10;;;;;;;0.10;0.10;;;18.60;62.20;;;;;;5060323;28;20078;-76
2023/03/26 10:37:44;;;;;;;0.05;0.05;;;18.30;60.00;;;;;;5062587;28;20514;-77
2023/03/26 10:40:25;;;;;;;0.28;0.28;;;18.50;59.80;;;;;;5064610;28;20692;-79
2023/03/26 10:43:13;;;;;;;1.40;1.30;;;18.70;58.50;;;;;;5061591;28;20071;-87
2023/03/26 10:46:10;;;;;;;0.08;0.08;;;18.70;59.10;;;;;;5060712;28;20581;-79
2023/03/26 10:49:14;;;;;;;0.10;0.10;;;18.80;58.50;;;;;;5058733;28;20213;-76
2023/03/26 10:51:40;;;;;;;;;;;18.70;57.70;;;;;;4995203;28;20416;-76
2023/03/26 10:54:16;;;;;;;0.10;0.10;;;18.90;59.20;;;;;;4995687;28;19906;-80
2023/03/26 10:56:45;;;;;;;0.30;0.30;;;19.10;57.80;;;;;;4994757;28;20471;-80
2023/03/26 10:59:15;;;;;;;0.10;0.10;;;19.30;58.20;;;;;;4978474;28;20524;-76
2023/03/26 11:02:03;;;;;;;0.10;0.10;;;19.30;57.20;;;;;;4994568;28;20030;-81
2023/03/26 11:04:38;;;;;;;0.10;0.10;;;19.40;57.20;;;;;;4978652;28;20198;-75
2023/03/26 11:07:28;;;;;;;0.10;0.10;;;22.00;58.30;;;;;;4998671;28;20056;-76
2023/03/26 11:10:03;;;;;;;0.10;0.10;;;19.50;57.00;;;;;;4998983;28;20056;-79
2023/03/26 11:12:39;;;;;;;0.10;0.10;;;19.60;56.30;;;;;;4999087;28;20030;-76
2023/03/26 11:15:37;;;;;;;0.10;0.10;;;19.60;57.00;;;;;;4982493;28;20525;-77
2023/03/26 11:18:20;;;;;;;0.20;0.20;;;19.70;56.70;;;;;;4998891;28;20053;-76
2023/03/26 11:20:51;;;;;;;1.23;1.13;;;19.90;57.80;;;;;;4998275;28;20088;-76
2023/03/26 11:23:36;;;;;;;0.75;0.75;;;20.10;56.40;;;;;;4998724;28;20037;-77
2023/03/26 11:26:13;;;;;;;1.23;1.20;;;20.00;55.80;;;;;;4998388;28;20309;-79
2023/03/26 11:28:54;;;;;;;0.10;0.10;;;19.90;56.80;;;;;;5032681;28;20119;-76
2023/03/26 11:31:28;;;;;;;0.10;0.10;;;19.80;55.20;;;;;;5060923;28;20025;-76
2023/03/26 11:34:02;;;;;;;0.10;0.10;;;19.70;55.80;;;;;;5060792;28;20591;-76
2023/03/26 11:36:35;;;;;;;0.00;0.00;;;19.80;56.80;;;;;;5060810;28;20256;-76
2023/03/26 11:39:07;;;;;;;0.30;0.30;;;19.90;56.60;;;;;;5060896;28;20519;-80
2023/03/26 11:41:33;;;;;;;0.10;0.10;;;20.10;57.00;;;;;;5060560;28;20178;-79
2023/03/26 11:44:14;;;;;;;0.10;0.10;;;19.80;55.90;;;;;;5060422;28;20111;-77
2023/03/26 11:46:44;;;;;;;0.10;0.10;;;19.90;55.30;;;;;;5075641;28;20356;-80
2023/03/26 11:49:13;;;;;;;0.10;0.10;;;20.30;55.20;;;;;;5061127;28;20653;-77
2023/03/26 11:51:41;;;;;;;0.13;0.13;;;20.50;55.30;;;;;;5060356;28;20125;-76
2023/03/26 11:54:11;;;;;;;0.32;0.32;;;20.20;52.50;;;;;;5060525;28;20023;-76
2023/03/26 11:56:44;;;;;;;0.10;0.10;;;20.50;53.10;;;;;;5060218;28;20052;-76
2023/03/26 11:59:20;;;;;;;0.10;0.10;;;20.80;53.40;;;;;;5058530;28;20044;-76
2023/03/26 12:02:01;;;;;;;0.10;0.10;;;21.10;51.40;;;;;;5059964;28;20514;-76
2023/03/26 12:04:39;;;;;;;0.28;0.28;;;21.30;51.00;;;;;;5061341;28;20229;-75
2023/03/26 12:07:28;;;;;;;0.00;0.00;;;21.40;50.40;;;;;;5060123;28;20326;-79
2023/03/26 12:09:59;;;;;;;0.17;0.17;;;21.50;51.30;;;;;;5060261;28;20524;-76
2023/03/26 12:12:29;;;;;;;0.32;0.32;;;21.40;49.90;;;;;;5075024;28;20052;-76
2023/03/26 12:14:55;;;;;;;0.10;0.10;;;21.40;50.50;;;;;;5059944;28;20254;-77
2023/03/26 12:17:28;;;;;;;0.10;0.10;;;21.50;49.50;;;;;;5057585;28;20036;-76
2023/03/26 12:19:54;;;;;;;0.10;0.10;;;21.40;48.70;;;;;;5060984;28;20017;-77
2023/03/26 12:22:36;;;;;;;0.10;0.10;;;21.60;49.20;;;;;;5058143;28;20233;-76
2023/03/26 12:25:15;;;;;;;0.10;0.10;;;21.60;47.70;;;;;;5060641;28;20495;-77
2023/03/26 12:27:48;;;;;;;0.08;0.08;;;21.60;48.70;;;;;;5060659;28;20111;-76
2023/03/26 12:30:24;;;;;;;;;;;21.50;48.70;;;;;;5076092;28;20374;-76
2023/03/26 12:32:52;;;;;;;0.00;0.00;;;21.20;47.90;;;;;;5058836;28;20267;-76
2023/03/26 12:35:25;;;;;;;0.10;0.10;;;21.50;48.70;;;;;;5059915;28;20028;-75
2023/03/26 12:37:56;;;;;;;0.10;0.10;;;21.30;48.80;;;;;;5060128;28;20098;-77
2023/03/26 12:40:35;;;;;;;0.10;0.10;;;21.10;49.90;;;;;;5058127;28;20028;-76
2023/03/26 12:43:27;;;;;;;0.10;0.10;;;21.00;48.60;;;;;;5057993;28;20538;-78
2023/03/26 12:45:55;;;;;;;0.10;0.10;;;21.30;49.00;;;;;;5058908;28;20337;-77
2023/03/26 12:48:24;;;;;;;0.00;0.00;;;21.10;48.90;;;;;;5059377;28;20110;-78
2023/03/26 12:51:08;;;;;;;0.10;0.10;;;18.10;46.70;;;;;;5057840;28;20267;-75
2023/03/26 12:53:37;;;;;;;0.10;0.10;;;21.10;49.10;;;;;;5059753;28;20102;-77
2023/03/26 12:56:35;;;;;;;0.00;0.00;;;21.00;48.10;;;;;;5060038;28;20111;-75
2023/03/26 12:59:24;;;;;;;0.20;0.20;;;20.90;48.40;;;;;;5058564;28;20575;-75
2023/03/26 13:02:37;;;;;;;0.00;0.00;;;20.80;48.80;;;;;;5059103;28;20016;-76
2023/03/26 13:05:12;;;;;;;0.10;0.10;;;20.60;49.10;;;;;;5059097;28;20023;-80
2023/03/26 13:07:38;;;;;;;0.10;0.10;;;20.30;49.20;;;;;;5059344;28;20491;-76
2023/03/26 13:10:33;;;;;;;0.00;0.00;;;19.90;49.10;;;;;;5059323;28;20098;-76
2023/03/26 13:13:09;;;;;;;0.10;0.10;;;19.80;49.60;;;;;;5060141;28;20023;-76
2023/03/26 13:15:44;;;;;;;0.28;0.28;;;19.70;50.00;;;;;;5059870;28;20028;-76
2023/03/26 13:18:38;;;;;;;0.10;0.10;;;19.50;50.50;;;;;;5059101;28;20115;-77
2023/03/26 13:21:31;;;;;;;0.35;0.35;;;19.10;51.10;;;;;;5058906;28;20028;-78
2023/03/26 13:24:52;;;;;;;0.10;0.10;;;19.00;51.70;;;;;;5059141;28;20267;-76
2023/03/26 13:27:20;;;;;;;0.10;0.10;;;18.80;52.00;;;;;;4997147;28;20041;-78
2023/03/26 13:29:55;;;;;;;0.10;0.10;;;18.70;52.60;;;;;;4979458;28;20494;-75
2023/03/26 13:32:21;;;;;;;0.10;0.10;;;;;;;;;;4996122;28;20353;-77
2023/03/26 13:35:12;;;;;;;0.10;0.10;;;18.60;53.20;;;;;;4997711;28;20766;-79